sensor_id;sensor_type;location;lat;lon;timestamp;P1;durP1;ratioP1;P2;durP2;ratioP2
26822;SDS011;14852;51.910;8.878;2022-10-17T00:01:52;5.32;;;4.82;;
26822;SDS011;14852;51.910;8.878;2022-10-17T00:04:18;6.53;;;5.07;;
26822;SDS011;14852;51.910;8.878;2022-10-17T00:06:44;5.25;;;4.75;;
26822;SDS011;14852;51.910;8.878;2022-10-17T00:09:10;11.55;;;5.82;;
26822;SDS011;14852;51.910;8.878;2022-10-17T00:11:35;6.18;;;4.75;;
26822;SDS011;14852;51.910;8.878;2022-10-17T00:14:01;7.90;;;5.28;;
26822;SDS011;14852;51.910;8.878;2022-10-17T00:16:29;5.82;;;5.10;;
26822;SDS011;14852;51.910;8.878;2022-10-17T00:19:00;6.15;;;5.13;;
26822;SDS011;14852;51.910;8.878;2022-10-17T00:21:31;7.68;;;5.43;;
26822;SDS011;14852;51.910;8.878;2022-10-17T00:23:57;4.97;;;4.47;;
26822;SDS011;14852;51.910;8.878;2022-10-17T00:26:24;9.57;;;5.53;;
26822;SDS011;14852;51.910;8.878;2022-10-17T00:28:51;6.10;;;5.47;;
26822;SDS011;14852;51.910;8.878;2022-10-17T00:31:19;5.60;;;4.95;;
26822;SDS011;14852;51.910;8.878;2022-10-17T00:33:48;5.70;;;4.35;;
26822;SDS011;14852;51.910;8.878;2022-10-17T00:36:15;7.15;;;4.82;;
26822;SDS011;14852;51.910;8.878;2022-10-17T00:38:46;12.00;;;4.70;;
26822;SDS011;14852;51.910;8.878;2022-10-17T00:41:15;4.78;;;4.38;;
26822;SDS011;14852;51.910;8.878;2022-10-17T00:44:03;4.57;;;3.45;;
26822;SDS011;14852;51.910;8.878;2022-10-17T00:46:58;5.05;;;3.88;;
26822;SDS011;14852;51.910;8.878;2022-10-17T00:49:29;4.97;;;3.83;;
26822;SDS011;14852;51.910;8.878;2022-10-17T00:52:05;7.18;;;4.10;;
26822;SDS011;14852;51.910;8.878;2022-10-17T00:54:40;4.80;;;4.30;;
26822;SDS011;14852;51.910;8.878;2022-10-17T00:57:13;5.88;;;3.90;;
26822;SDS011;14852;51.910;8.878;2022-10-17T00:59:42;4.72;;;4.30;;
26822;SDS011;14852;51.910;8.878;2022-10-17T01:02:15;4.67;;;4.27;;
26822;SDS011;14852;51.910;8.878;2022-10-17T01:04:46;5.78;;;4.45;;
26822;SDS011;14852;51.910;8.878;2022-10-17T01:07:15;4.75;;;4.32;;
26822;SDS011;14852;51.910;8.878;2022-10-17T01:09:41;5.47;;;4.32;;
26822;SDS011;14852;51.910;8.878;2022-10-17T01:14:57;5.35;;;4.72;;
26822;SDS011;14852;51.910;8.878;2022-10-17T01:32:57;6.28;;;5.53;;
26822;SDS011;14852;51.910;8.878;2022-10-17T01:38:47;6.57;;;5.93;;
26822;SDS011;14852;51.910;8.878;2022-10-17T01:41:23;6.47;;;5.88;;
26822;SDS011;14852;51.910;8.878;2022-10-17T01:43:57;6.72;;;5.85;;
26822;SDS011;14852;51.910;8.878;2022-10-17T01:46:37;7.80;;;7.03;;
26822;SDS011;14852;51.910;8.878;2022-10-17T01:49:08;6.70;;;6.10;;
26822;SDS011;14852;51.910;8.878;2022-10-17T01:54:32;7.10;;;6.35;;
26822;SDS011;14852;51.910;8.878;2022-10-17T01:57:12;7.65;;;6.93;;
26822;SDS011;14852;51.910;8.878;2022-10-17T01:59:45;7.60;;;6.80;;
26822;SDS011;14852;51.910;8.878;2022-10-17T02:02:14;8.23;;;7.28;;
26822;SDS011;14852;51.910;8.878;2022-10-17T02:04:42;8.07;;;7.28;;
26822;SDS011;14852;51.910;8.878;2022-10-17T02:07:11;8.32;;;7.53;;
26822;SDS011;14852;51.910;8.878;2022-10-17T02:09:37;8.82;;;8.02;;
26822;SDS011;14852;51.910;8.878;2022-10-17T02:21:15;12.13;;;9.10;;
26822;SDS011;14852;51.910;8.878;2022-10-17T02:24:06;8.70;;;7.90;;
26822;SDS011;14852;51.910;8.878;2022-10-17T02:26:56;11.10;;;8.43;;
26822;SDS011;14852;51.910;8.878;2022-10-17T02:29:53;10.02;;;9.13;;
26822;SDS011;14852;51.910;8.878;2022-10-17T02:32:29;10.00;;;9.10;;
26822;SDS011;14852;51.910;8.878;2022-10-17T02:35:29;9.90;;;9.00;;
26822;SDS011;14852;51.910;8.878;2022-10-17T02:38:00;10.30;;;8.57;;
26822;SDS011;14852;51.910;8.878;2022-10-17T02:40:29;10.95;;;8.93;;
26822;SDS011;14852;51.910;8.878;2022-10-17T02:42:57;11.35;;;9.02;;
26822;SDS011;14852;51.910;8.878;2022-10-17T02:45:28;10.32;;;9.10;;
26822;SDS011;14852;51.910;8.878;2022-10-17T02:50:50;9.88;;;8.95;;
26822;SDS011;14852;51.910;8.878;2022-10-17T02:53:51;11.20;;;8.90;;
26822;SDS011;14852;51.910;8.878;2022-10-17T02:56:22;9.98;;;8.43;;
26822;SDS011;14852;51.910;8.878;2022-10-17T02:58:54;10.27;;;9.18;;
26822;SDS011;14852;51.910;8.878;2022-10-17T03:01:23;11.07;;;8.63;;
26822;SDS011;14852;51.910;8.878;2022-10-17T03:03:52;10.77;;;9.20;;
26822;SDS011;14852;51.910;8.878;2022-10-17T03:06:40;10.40;;;9.25;;
26822;SDS011;14852;51.910;8.878;2022-10-17T03:09:07;11.10;;;10.00;;
26822;SDS011;14852;51.910;8.878;2022-10-17T03:11:33;9.88;;;8.88;;
26822;SDS011;14852;51.910;8.878;2022-10-17T03:13:59;11.73;;;10.10;;
26822;SDS011;14852;51.910;8.878;2022-10-17T03:16:25;9.25;;;8.20;;
26822;SDS011;14852;51.910;8.878;2022-10-17T03:18:51;10.80;;;9.68;;
26822;SDS011;14852;51.910;8.878;2022-10-17T03:21:17;10.02;;;9.02;;
26822;SDS011;14852;51.910;8.878;2022-10-17T03:23:43;10.82;;;9.02;;
26822;SDS011;14852;51.910;8.878;2022-10-17T03:26:10;9.35;;;8.35;;
26822;SDS011;14852;51.910;8.878;2022-10-17T03:28:37;9.38;;;8.45;;
26822;SDS011;14852;51.910;8.878;2022-10-17T03:31:11;9.73;;;8.50;;
26822;SDS011;14852;51.910;8.878;2022-10-17T03:33:40;10.45;;;9.43;;
26822;SDS011;14852;51.910;8.878;2022-10-17T03:36:07;12.30;;;9.57;;
26822;SDS011;14852;51.910;8.878;2022-10-17T03:38:36;11.20;;;10.07;;
26822;SDS011;14852;51.910;8.878;2022-10-17T03:41:03;9.93;;;8.93;;
26822;SDS011;14852;51.910;8.878;2022-10-17T03:43:31;10.88;;;9.82;;
26822;SDS011;14852;51.910;8.878;2022-10-17T03:45:57;10.20;;;9.20;;
26822;SDS011;14852;51.910;8.878;2022-10-17T03:48:24;13.45;;;9.02;;
26822;SDS011;14852;51.910;8.878;2022-10-17T03:50:58;11.30;;;10.20;;
26822;SDS011;14852;51.910;8.878;2022-10-17T03:53:27;11.32;;;9.95;;
26822;SDS011;14852;51.910;8.878;2022-10-17T03:55:54;10.77;;;9.73;;
26822;SDS011;14852;51.910;8.878;2022-10-17T03:58:21;10.55;;;9.57;;
26822;SDS011;14852;51.910;8.878;2022-10-17T04:00:47;11.63;;;9.35;;
26822;SDS011;14852;51.910;8.878;2022-10-17T04:03:13;11.18;;;9.93;;
26822;SDS011;14852;51.910;8.878;2022-10-17T04:05:39;11.07;;;8.60;;
26822;SDS011;14852;51.910;8.878;2022-10-17T04:08:05;12.30;;;9.73;;
26822;SDS011;14852;51.910;8.878;2022-10-17T04:11:00;9.38;;;8.52;;
26822;SDS011;14852;51.910;8.878;2022-10-17T04:13:29;10.27;;;9.32;;
26822;SDS011;14852;51.910;8.878;2022-10-17T04:15:58;12.30;;;9.18;;
26822;SDS011;14852;51.910;8.878;2022-10-17T04:18:32;8.57;;;7.72;;
26822;SDS011;14852;51.910;8.878;2022-10-17T04:21:01;14.00;;;10.02;;
26822;SDS011;14852;51.910;8.878;2022-10-17T04:23:32;11.60;;;9.55;;
26822;SDS011;14852;51.910;8.878;2022-10-17T04:26:06;8.88;;;8.05;;
26822;SDS011;14852;51.910;8.878;2022-10-17T04:28:32;10.43;;;9.38;;
26822;SDS011;14852;51.910;8.878;2022-10-17T04:30:59;11.95;;;9.23;;
26822;SDS011;14852;51.910;8.878;2022-10-17T04:33:36;10.30;;;7.43;;
26822;SDS011;14852;51.910;8.878;2022-10-17T04:36:04;9.77;;;8.55;;
26822;SDS011;14852;51.910;8.878;2022-10-17T04:38:33;9.70;;;8.60;;
26822;SDS011;14852;51.910;8.878;2022-10-17T04:40:59;8.82;;;7.25;;
26822;SDS011;14852;51.910;8.878;2022-10-17T04:43:28;8.23;;;6.97;;
26822;SDS011;14852;51.910;8.878;2022-10-17T04:46:02;8.52;;;6.78;;
26822;SDS011;14852;51.910;8.878;2022-10-17T04:48:35;11.13;;;6.93;;
26822;SDS011;14852;51.910;8.878;2022-10-17T04:51:03;7.95;;;6.65;;
26822;SDS011;14852;51.910;8.878;2022-10-17T04:53:42;8.77;;;7.03;;
26822;SDS011;14852;51.910;8.878;2022-10-17T04:56:11;10.20;;;8.73;;
26822;SDS011;14852;51.910;8.878;2022-10-17T04:58:44;10.52;;;8.00;;
26822;SDS011;14852;51.910;8.878;2022-10-17T05:01:12;11.38;;;9.43;;
26822;SDS011;14852;51.910;8.878;2022-10-17T05:03:41;15.18;;;9.77;;
26822;SDS011;14852;51.910;8.878;2022-10-17T05:06:12;13.90;;;10.98;;
26822;SDS011;14852;51.910;8.878;2022-10-17T05:08:44;15.13;;;10.57;;
26822;SDS011;14852;51.910;8.878;2022-10-17T05:11:19;12.02;;;9.95;;
26822;SDS011;14852;51.910;8.878;2022-10-17T05:13:51;12.82;;;10.38;;
26822;SDS011;14852;51.910;8.878;2022-10-17T05:16:20;10.80;;;9.00;;
26822;SDS011;14852;51.910;8.878;2022-10-17T05:18:49;9.93;;;8.93;;
26822;SDS011;14852;51.910;8.878;2022-10-17T05:21:17;10.38;;;9.32;;
26822;SDS011;14852;51.910;8.878;2022-10-17T05:23:44;11.38;;;9.25;;
26822;SDS011;14852;51.910;8.878;2022-10-17T05:26:10;10.23;;;9.25;;
26822;SDS011;14852;51.910;8.878;2022-10-17T05:28:37;10.25;;;9.15;;
26822;SDS011;14852;51.910;8.878;2022-10-17T05:31:04;12.23;;;10.20;;
26822;SDS011;14852;51.910;8.878;2022-10-17T05:33:32;12.95;;;8.88;;
26822;SDS011;14852;51.910;8.878;2022-10-17T05:35:58;11.57;;;9.52;;
26822;SDS011;14852;51.910;8.878;2022-10-17T05:38:25;10.45;;;8.13;;
26822;SDS011;14852;51.910;8.878;2022-10-17T05:40:55;10.15;;;9.13;;
26822;SDS011;14852;51.910;8.878;2022-10-17T05:43:23;10.88;;;9.77;;
26822;SDS011;14852;51.910;8.878;2022-10-17T05:45:49;11.18;;;10.00;;
26822;SDS011;14852;51.910;8.878;2022-10-17T05:48:18;11.70;;;9.98;;
26822;SDS011;14852;51.910;8.878;2022-10-17T05:50:45;12.02;;;10.45;;
26822;SDS011;14852;51.910;8.878;2022-10-17T05:53:15;16.08;;;12.40;;
26822;SDS011;14852;51.910;8.878;2022-10-17T05:55:58;12.43;;;11.05;;
26822;SDS011;14852;51.910;8.878;2022-10-17T05:58:26;14.30;;;10.77;;
26822;SDS011;14852;51.910;8.878;2022-10-17T06:00:58;12.88;;;11.55;;
26822;SDS011;14852;51.910;8.878;2022-10-17T06:03:27;12.88;;;10.93;;
26822;SDS011;14852;51.910;8.878;2022-10-17T06:05:54;12.88;;;10.38;;
26822;SDS011;14852;51.910;8.878;2022-10-17T06:08:20;11.43;;;10.23;;
26822;SDS011;14852;51.910;8.878;2022-10-17T06:10:47;11.75;;;10.68;;
26822;SDS011;14852;51.910;8.878;2022-10-17T06:13:15;11.88;;;10.77;;
26822;SDS011;14852;51.910;8.878;2022-10-17T06:15:44;11.45;;;10.35;;
26822;SDS011;14852;51.910;8.878;2022-10-17T06:18:10;11.65;;;10.57;;
26822;SDS011;14852;51.910;8.878;2022-10-17T06:20:36;11.30;;;10.15;;
26822;SDS011;14852;51.910;8.878;2022-10-17T06:23:02;12.57;;;11.40;;
26822;SDS011;14852;51.910;8.878;2022-10-17T06:25:47;12.90;;;11.80;;
26822;SDS011;14852;51.910;8.878;2022-10-17T06:28:12;14.35;;;12.95;;
26822;SDS011;14852;51.910;8.878;2022-10-17T06:30:39;11.32;;;10.13;;
26822;SDS011;14852;51.910;8.878;2022-10-17T06:33:05;12.45;;;11.18;;
26822;SDS011;14852;51.910;8.878;2022-10-17T06:35:31;11.40;;;10.15;;
26822;SDS011;14852;51.910;8.878;2022-10-17T06:37:57;10.60;;;9.50;;
26822;SDS011;14852;51.910;8.878;2022-10-17T06:40:24;10.40;;;9.32;;
26822;SDS011;14852;51.910;8.878;2022-10-17T06:42:50;10.65;;;8.27;;
26822;SDS011;14852;51.910;8.878;2022-10-17T06:45:24;16.35;;;9.13;;
26822;SDS011;14852;51.910;8.878;2022-10-17T06:48:05;9.05;;;8.07;;
26822;SDS011;14852;51.910;8.878;2022-10-17T06:50:42;8.48;;;7.68;;
26822;SDS011;14852;51.910;8.878;2022-10-17T06:53:17;8.13;;;7.32;;
26822;SDS011;14852;51.910;8.878;2022-10-17T06:56:16;8.00;;;7.20;;
26822;SDS011;14852;51.910;8.878;2022-10-17T06:58:57;7.90;;;6.35;;
26822;SDS011;14852;51.910;8.878;2022-10-17T07:01:27;7.38;;;6.00;;
26822;SDS011;14852;51.910;8.878;2022-10-17T07:03:57;7.07;;;6.07;;
26822;SDS011;14852;51.910;8.878;2022-10-17T07:06:26;6.68;;;5.68;;
26822;SDS011;14852;51.910;8.878;2022-10-17T07:08:54;7.07;;;5.57;;
26822;SDS011;14852;51.910;8.878;2022-10-17T07:11:21;5.63;;;5.13;;
26822;SDS011;14852;51.910;8.878;2022-10-17T07:13:49;7.25;;;5.07;;
26822;SDS011;14852;51.910;8.878;2022-10-17T07:16:16;7.40;;;4.70;;
26822;SDS011;14852;51.910;8.878;2022-10-17T07:18:47;4.88;;;4.35;;
26822;SDS011;14852;51.910;8.878;2022-10-17T07:21:15;4.75;;;4.13;;
26822;SDS011;14852;51.910;8.878;2022-10-17T07:23:42;5.38;;;4.72;;
26822;SDS011;14852;51.910;8.878;2022-10-17T07:26:10;6.35;;;5.15;;
26822;SDS011;14852;51.910;8.878;2022-10-17T07:28:42;7.32;;;6.63;;
26822;SDS011;14852;51.910;8.878;2022-10-17T07:31:22;8.35;;;7.13;;
26822;SDS011;14852;51.910;8.878;2022-10-17T07:33:48;8.23;;;7.40;;
26822;SDS011;14852;51.910;8.878;2022-10-17T07:36:15;8.73;;;7.82;;
26822;SDS011;14852;51.910;8.878;2022-10-17T07:38:41;7.97;;;7.15;;
26822;SDS011;14852;51.910;8.878;2022-10-17T07:41:08;8.77;;;7.88;;
26822;SDS011;14852;51.910;8.878;2022-10-17T07:43:36;7.72;;;6.88;;
26822;SDS011;14852;51.910;8.878;2022-10-17T07:46:03;13.93;;;6.72;;
26822;SDS011;14852;51.910;8.878;2022-10-17T07:48:31;8.30;;;7.05;;
26822;SDS011;14852;51.910;8.878;2022-10-17T07:51:00;9.75;;;7.30;;
26822;SDS011;14852;51.910;8.878;2022-10-17T07:53:28;7.63;;;6.82;;
26822;SDS011;14852;51.910;8.878;2022-10-17T07:55:54;9.77;;;6.15;;
26822;SDS011;14852;51.910;8.878;2022-10-17T07:58:20;7.18;;;6.40;;
26822;SDS011;14852;51.910;8.878;2022-10-17T08:00:46;8.90;;;7.35;;
26822;SDS011;14852;51.910;8.878;2022-10-17T08:03:15;8.05;;;6.57;;
26822;SDS011;14852;51.910;8.878;2022-10-17T08:05:40;9.13;;;6.63;;
26822;SDS011;14852;51.910;8.878;2022-10-17T08:08:06;6.57;;;5.90;;
26822;SDS011;14852;51.910;8.878;2022-10-17T08:10:32;6.88;;;5.78;;
26822;SDS011;14852;51.910;8.878;2022-10-17T08:12:58;7.10;;;5.40;;
26822;SDS011;14852;51.910;8.878;2022-10-17T08:15:24;8.95;;;5.97;;
26822;SDS011;14852;51.910;8.878;2022-10-17T08:17:50;5.97;;;5.15;;
26822;SDS011;14852;51.910;8.878;2022-10-17T08:20:16;9.45;;;6.03;;
26822;SDS011;14852;51.910;8.878;2022-10-17T08:22:42;6.35;;;4.68;;
26822;SDS011;14852;51.910;8.878;2022-10-17T08:25:19;5.95;;;5.45;;
26822;SDS011;14852;51.910;8.878;2022-10-17T08:27:45;7.43;;;5.47;;
26822;SDS011;14852;51.910;8.878;2022-10-17T08:30:11;7.10;;;5.43;;
26822;SDS011;14852;51.910;8.878;2022-10-17T08:32:37;5.63;;;4.90;;
26822;SDS011;14852;51.910;8.878;2022-10-17T08:35:03;9.25;;;5.32;;
26822;SDS011;14852;51.910;8.878;2022-10-17T08:37:29;7.10;;;5.28;;
26822;SDS011;14852;51.910;8.878;2022-10-17T08:39:56;7.18;;;5.97;;
26822;SDS011;14852;51.910;8.878;2022-10-17T08:45:28;6.53;;;5.40;;
26822;SDS011;14852;51.910;8.878;2022-10-17T08:48:16;8.02;;;6.28;;
26822;SDS011;14852;51.910;8.878;2022-10-17T08:50:55;9.57;;;6.68;;
26822;SDS011;14852;51.910;8.878;2022-10-17T08:53:50;7.10;;;6.43;;
26822;SDS011;14852;51.910;8.878;2022-10-17T08:56:29;8.57;;;6.82;;
26822;SDS011;14852;51.910;8.878;2022-10-17T08:59:04;7.35;;;6.68;;
26822;SDS011;14852;51.910;8.878;2022-10-17T09:04:40;6.95;;;6.25;;
26822;SDS011;14852;51.910;8.878;2022-10-17T09:07:25;7.53;;;5.43;;
26822;SDS011;14852;51.910;8.878;2022-10-17T09:13:35;4.93;;;4.18;;
26822;SDS011;14852;51.910;8.878;2022-10-17T09:16:30;5.03;;;4.45;;
26822;SDS011;14852;51.910;8.878;2022-10-17T09:19:40;5.68;;;4.20;;
26822;SDS011;14852;51.910;8.878;2022-10-17T09:22:20;6.57;;;4.43;;
26822;SDS011;14852;51.910;8.878;2022-10-17T09:24:53;9.63;;;4.05;;
26822;SDS011;14852;51.910;8.878;2022-10-17T09:32:57;3.10;;;2.30;;
26822;SDS011;14852;51.910;8.878;2022-10-17T09:35:24;2.85;;;2.58;;
26822;SDS011;14852;51.910;8.878;2022-10-17T09:37:52;3.10;;;2.70;;
26822;SDS011;14852;51.910;8.878;2022-10-17T09:40:21;4.03;;;2.97;;
26822;SDS011;14852;51.910;8.878;2022-10-17T09:42:56;5.18;;;2.78;;
26822;SDS011;14852;51.910;8.878;2022-10-17T09:45:23;3.03;;;2.70;;
26822;SDS011;14852;51.910;8.878;2022-10-17T09:50:42;4.50;;;2.45;;
26822;SDS011;14852;51.910;8.878;2022-10-17T09:55:46;3.88;;;2.70;;
26822;SDS011;14852;51.910;8.878;2022-10-17T09:58:20;3.80;;;3.05;;
26822;SDS011;14852;51.910;8.878;2022-10-17T10:00:46;4.70;;;3.00;;
26822;SDS011;14852;51.910;8.878;2022-10-17T10:06:18;3.03;;;2.72;;
26822;SDS011;14852;51.910;8.878;2022-10-17T10:08:52;3.75;;;2.63;;
26822;SDS011;14852;51.910;8.878;2022-10-17T10:11:23;3.08;;;2.58;;
26822;SDS011;14852;51.910;8.878;2022-10-17T10:14:14;3.88;;;2.95;;
26822;SDS011;14852;51.910;8.878;2022-10-17T10:16:47;3.38;;;2.42;;
26822;SDS011;14852;51.910;8.878;2022-10-17T10:19:48;4.60;;;2.60;;
26822;SDS011;14852;51.910;8.878;2022-10-17T10:22:14;4.07;;;2.63;;
26822;SDS011;14852;51.910;8.878;2022-10-17T10:24:42;3.10;;;2.80;;
26822;SDS011;14852;51.910;8.878;2022-10-17T10:27:12;6.43;;;3.35;;
26822;SDS011;14852;51.910;8.878;2022-10-17T10:29:50;5.45;;;2.45;;
26822;SDS011;14852;51.910;8.878;2022-10-17T10:32:18;3.20;;;2.63;;
26822;SDS011;14852;51.910;8.878;2022-10-17T10:37:27;3.75;;;2.95;;
26822;SDS011;14852;51.910;8.878;2022-10-17T10:40:03;5.68;;;2.90;;
26822;SDS011;14852;51.910;8.878;2022-10-17T10:43:05;3.75;;;2.28;;
26822;SDS011;14852;51.910;8.878;2022-10-17T10:48:01;2.65;;;2.35;;
26822;SDS011;14852;51.910;8.878;2022-10-17T10:53:27;3.42;;;2.55;;
26822;SDS011;14852;51.910;8.878;2022-10-17T10:55:54;4.18;;;2.72;;
26822;SDS011;14852;51.910;8.878;2022-10-17T11:04:28;3.85;;;2.58;;
26822;SDS011;14852;51.910;8.878;2022-10-17T11:07:13;6.18;;;2.95;;
26822;SDS011;14852;51.910;8.878;2022-10-17T11:10:04;5.82;;;2.90;;
26822;SDS011;14852;51.910;8.878;2022-10-17T11:24:24;2.85;;;2.50;;
26822;SDS011;14852;51.910;8.878;2022-10-17T11:27:02;3.85;;;2.30;;
26822;SDS011;14852;51.910;8.878;2022-10-17T11:29:31;4.47;;;3.15;;
26822;SDS011;14852;51.910;8.878;2022-10-17T11:32:14;5.82;;;2.90;;
26822;SDS011;14852;51.910;8.878;2022-10-17T11:34:52;5.25;;;2.60;;
26822;SDS011;14852;51.910;8.878;2022-10-17T11:37:27;4.45;;;2.35;;
26822;SDS011;14852;51.910;8.878;2022-10-17T11:40:09;6.10;;;2.63;;
26822;SDS011;14852;51.910;8.878;2022-10-17T11:42:49;5.95;;;2.80;;
26822;SDS011;14852;51.910;8.878;2022-10-17T11:45:24;4.95;;;2.20;;
26822;SDS011;14852;51.910;8.878;2022-10-17T11:48:00;4.88;;;2.20;;
26822;SDS011;14852;51.910;8.878;2022-10-17T11:50:36;4.20;;;2.58;;
26822;SDS011;14852;51.910;8.878;2022-10-17T11:53:08;6.03;;;2.47;;
26822;SDS011;14852;51.910;8.878;2022-10-17T11:55:45;5.57;;;3.40;;
26822;SDS011;14852;51.910;8.878;2022-10-17T12:01:22;3.15;;;2.20;;
26822;SDS011;14852;51.910;8.878;2022-10-17T12:04:24;3.08;;;2.50;;
26822;SDS011;14852;51.910;8.878;2022-10-17T12:07:13;6.57;;;2.67;;
26822;SDS011;14852;51.910;8.878;2022-10-17T12:15:51;5.30;;;3.00;;
26822;SDS011;14852;51.910;8.878;2022-10-17T12:18:23;5.05;;;2.95;;
26822;SDS011;14852;51.910;8.878;2022-10-17T12:20:55;3.45;;;2.53;;
26822;SDS011;14852;51.910;8.878;2022-10-17T12:23:24;3.80;;;2.45;;
26822;SDS011;14852;51.910;8.878;2022-10-17T12:25:59;4.47;;;2.78;;
26822;SDS011;14852;51.910;8.878;2022-10-17T12:49:20;3.03;;;2.45;;
26822;SDS011;14852;51.910;8.878;2022-10-17T12:55:05;4.82;;;3.00;;
26822;SDS011;14852;51.910;8.878;2022-10-17T12:57:41;5.20;;;3.13;;
26822;SDS011;14852;51.910;8.878;2022-10-17T13:05:47;5.57;;;2.97;;
26822;SDS011;14852;51.910;8.878;2022-10-17T13:08:19;4.78;;;2.63;;
26822;SDS011;14852;51.910;8.878;2022-10-17T13:10:55;6.45;;;2.53;;
26822;SDS011;14852;51.910;8.878;2022-10-17T13:13:30;3.90;;;3.00;;
26822;SDS011;14852;51.910;8.878;2022-10-17T13:16:29;3.50;;;2.63;;
26822;SDS011;14852;51.910;8.878;2022-10-17T13:19:02;3.40;;;2.47;;
26822;SDS011;14852;51.910;8.878;2022-10-17T13:21:48;3.67;;;2.40;;
26822;SDS011;14852;51.910;8.878;2022-10-17T13:24:29;3.80;;;2.53;;
26822;SDS011;14852;51.910;8.878;2022-10-17T13:27:03;4.45;;;2.55;;
26822;SDS011;14852;51.910;8.878;2022-10-17T13:29:45;5.30;;;2.80;;
26822;SDS011;14852;51.910;8.878;2022-10-17T13:32:10;5.57;;;3.58;;
26822;SDS011;14852;51.910;8.878;2022-10-17T13:34:36;5.25;;;2.70;;
26822;SDS011;14852;51.910;8.878;2022-10-17T13:37:06;5.70;;;2.75;;
26822;SDS011;14852;51.910;8.878;2022-10-17T13:39:43;4.18;;;2.70;;
26822;SDS011;14852;51.910;8.878;2022-10-17T13:42:22;5.00;;;2.50;;
26822;SDS011;14852;51.910;8.878;2022-10-17T13:44:54;4.63;;;2.50;;
26822;SDS011;14852;51.910;8.878;2022-10-17T13:47:26;4.38;;;2.75;;
26822;SDS011;14852;51.910;8.878;2022-10-17T13:49:55;3.75;;;2.80;;
26822;SDS011;14852;51.910;8.878;2022-10-17T13:52:28;4.18;;;2.53;;
26822;SDS011;14852;51.910;8.878;2022-10-17T13:54:55;5.07;;;2.80;;
26822;SDS011;14852;51.910;8.878;2022-10-17T13:57:40;4.10;;;2.40;;
26822;SDS011;14852;51.910;8.878;2022-10-17T14:00:09;7.75;;;2.90;;
26822;SDS011;14852;51.910;8.878;2022-10-17T14:02:46;4.00;;;3.20;;
26822;SDS011;14852;51.910;8.878;2022-10-17T14:05:13;3.70;;;3.00;;
26822;SDS011;14852;51.910;8.878;2022-10-17T14:10:38;4.70;;;2.78;;
26822;SDS011;14852;51.910;8.878;2022-10-17T14:13:06;5.93;;;3.05;;
26822;SDS011;14852;51.910;8.878;2022-10-17T14:15:45;5.50;;;2.67;;
26822;SDS011;14852;51.910;8.878;2022-10-17T14:18:16;7.15;;;2.92;;
26822;SDS011;14852;51.910;8.878;2022-10-17T14:20:49;4.13;;;2.70;;
26822;SDS011;14852;51.910;8.878;2022-10-17T14:28:47;3.88;;;2.60;;
26822;SDS011;14852;51.910;8.878;2022-10-17T14:32:04;3.88;;;2.53;;
26822;SDS011;14852;51.910;8.878;2022-10-17T14:34:36;3.75;;;2.83;;
26822;SDS011;14852;51.910;8.878;2022-10-17T14:37:09;5.90;;;3.13;;
26822;SDS011;14852;51.910;8.878;2022-10-17T14:39:48;6.10;;;2.83;;
26822;SDS011;14852;51.910;8.878;2022-10-17T14:42:16;5.60;;;3.00;;
26822;SDS011;14852;51.910;8.878;2022-10-17T14:44:46;4.80;;;2.70;;
26822;SDS011;14852;51.910;8.878;2022-10-17T14:47:19;5.28;;;2.58;;
26822;SDS011;14852;51.910;8.878;2022-10-17T14:49:50;4.35;;;2.58;;
26822;SDS011;14852;51.910;8.878;2022-10-17T14:52:32;2.85;;;2.55;;
26822;SDS011;14852;51.910;8.878;2022-10-17T14:55:00;5.30;;;2.75;;
26822;SDS011;14852;51.910;8.878;2022-10-17T14:57:47;3.80;;;2.70;;
26822;SDS011;14852;51.910;8.878;2022-10-17T15:00:18;4.32;;;2.50;;
26822;SDS011;14852;51.910;8.878;2022-10-17T15:02:45;5.13;;;3.17;;
26822;SDS011;14852;51.910;8.878;2022-10-17T15:05:13;3.92;;;2.53;;
26822;SDS011;14852;51.910;8.878;2022-10-17T15:07:40;5.53;;;3.05;;
26822;SDS011;14852;51.910;8.878;2022-10-17T15:10:21;5.13;;;2.47;;
26822;SDS011;14852;51.910;8.878;2022-10-17T15:12:59;6.47;;;3.22;;
26822;SDS011;14852;51.910;8.878;2022-10-17T15:15:27;5.32;;;3.28;;
26822;SDS011;14852;51.910;8.878;2022-10-17T15:17:54;4.72;;;3.42;;
26822;SDS011;14852;51.910;8.878;2022-10-17T15:20:20;6.63;;;3.40;;
26822;SDS011;14852;51.910;8.878;2022-10-17T15:22:50;5.38;;;3.20;;
26822;SDS011;14852;51.910;8.878;2022-10-17T15:25:17;4.68;;;2.63;;
26822;SDS011;14852;51.910;8.878;2022-10-17T15:27:43;7.45;;;3.38;;
26822;SDS011;14852;51.910;8.878;2022-10-17T15:30:31;5.85;;;2.85;;
26822;SDS011;14852;51.910;8.878;2022-10-17T15:32:59;5.13;;;2.72;;
26822;SDS011;14852;51.910;8.878;2022-10-17T15:35:25;3.63;;;2.50;;
26822;SDS011;14852;51.910;8.878;2022-10-17T15:37:52;2.95;;;2.45;;
26822;SDS011;14852;51.910;8.878;2022-10-17T15:40:22;4.13;;;2.90;;
26822;SDS011;14852;51.910;8.878;2022-10-17T15:42:53;4.65;;;2.70;;
26822;SDS011;14852;51.910;8.878;2022-10-17T15:45:20;5.70;;;3.13;;
26822;SDS011;14852;51.910;8.878;2022-10-17T15:47:53;4.57;;;2.83;;
26822;SDS011;14852;51.910;8.878;2022-10-17T15:52:55;4.40;;;2.90;;
26822;SDS011;14852;51.910;8.878;2022-10-17T15:55:21;5.72;;;3.38;;
26822;SDS011;14852;51.910;8.878;2022-10-17T15:57:47;6.07;;;2.90;;
26822;SDS011;14852;51.910;8.878;2022-10-17T16:00:14;3.67;;;3.10;;
26822;SDS011;14852;51.910;8.878;2022-10-17T16:02:45;5.53;;;2.37;;
26822;SDS011;14852;51.910;8.878;2022-10-17T16:05:12;10.50;;;3.05;;
26822;SDS011;14852;51.910;8.878;2022-10-17T16:07:42;5.40;;;3.03;;
26822;SDS011;14852;51.910;8.878;2022-10-17T16:10:11;4.18;;;2.63;;
26822;SDS011;14852;51.910;8.878;2022-10-17T16:12:38;5.07;;;3.25;;
26822;SDS011;14852;51.910;8.878;2022-10-17T16:15:17;7.65;;;3.63;;
26822;SDS011;14852;51.910;8.878;2022-10-17T16:17:49;4.93;;;3.28;;
26822;SDS011;14852;51.910;8.878;2022-10-17T16:20:17;5.28;;;3.10;;
26822;SDS011;14852;51.910;8.878;2022-10-17T16:22:44;5.40;;;3.60;;
26822;SDS011;14852;51.910;8.878;2022-10-17T16:25:18;3.55;;;2.70;;
26822;SDS011;14852;51.910;8.878;2022-10-17T16:27:51;6.13;;;3.22;;
26822;SDS011;14852;51.910;8.878;2022-10-17T16:30:20;3.70;;;2.53;;
26822;SDS011;14852;51.910;8.878;2022-10-17T16:32:48;5.32;;;2.90;;
26822;SDS011;14852;51.910;8.878;2022-10-17T16:35:18;5.53;;;3.08;;
26822;SDS011;14852;51.910;8.878;2022-10-17T16:37:47;3.83;;;3.28;;
26822;SDS011;14852;51.910;8.878;2022-10-17T16:40:13;4.35;;;3.03;;
26822;SDS011;14852;51.910;8.878;2022-10-17T16:42:39;4.18;;;3.50;;
26822;SDS011;14852;51.910;8.878;2022-10-17T16:45:05;7.85;;;4.47;;
26822;SDS011;14852;51.910;8.878;2022-10-17T16:47:32;5.70;;;3.25;;
26822;SDS011;14852;51.910;8.878;2022-10-17T16:49:57;3.40;;;2.85;;
26822;SDS011;14852;51.910;8.878;2022-10-17T16:52:23;3.00;;;2.70;;
26822;SDS011;14852;51.910;8.878;2022-10-17T16:54:49;6.00;;;2.90;;
26822;SDS011;14852;51.910;8.878;2022-10-17T16:57:15;7.00;;;3.92;;
26822;SDS011;14852;51.910;8.878;2022-10-17T16:59:41;7.18;;;3.65;;
26822;SDS011;14852;51.910;8.878;2022-10-17T17:02:08;5.07;;;3.45;;
26822;SDS011;14852;51.910;8.878;2022-10-17T17:04:35;5.45;;;3.30;;
26822;SDS011;14852;51.910;8.878;2022-10-17T17:07:01;5.22;;;2.90;;
26822;SDS011;14852;51.910;8.878;2022-10-17T17:09:27;3.50;;;3.20;;
26822;SDS011;14852;51.910;8.878;2022-10-17T17:11:53;6.65;;;3.90;;
26822;SDS011;14852;51.910;8.878;2022-10-17T17:14:18;5.28;;;2.85;;
26822;SDS011;14852;51.910;8.878;2022-10-17T17:16:44;6.07;;;3.97;;
26822;SDS011;14852;51.910;8.878;2022-10-17T17:19:11;3.90;;;3.08;;
26822;SDS011;14852;51.910;8.878;2022-10-17T17:21:39;4.85;;;3.47;;
26822;SDS011;14852;51.910;8.878;2022-10-17T17:24:07;9.07;;;3.90;;
26822;SDS011;14852;51.910;8.878;2022-10-17T17:26:33;4.72;;;3.00;;